createdAt,value
2019-05-02T00:02:59.743Z,39.79
2019-05-02T00:08:01.067Z,39.87
2019-05-02T00:13:05.454Z,39.87
2019-05-02T00:18:09.263Z,39.94
2019-05-02T00:23:13.235Z,39.79
2019-05-02T00:28:17.038Z,39.79
2019-05-02T00:33:20.823Z,40.39
2019-05-02T00:38:24.646Z,40.57
2019-05-02T00:43:28.962Z,39.98
2019-05-02T00:48:41.668Z,40.47
2019-05-02T00:53:48.294Z,40.02
2019-05-02T00:58:50.983Z,40.02
2019-05-02T01:03:57.135Z,40.28
2019-05-02T01:09:01.090Z,40.31
2019-05-02T01:14:05.133Z,40.31
2019-05-02T01:19:12.172Z,40.34
2019-05-02T01:24:14.474Z,40.52
2019-05-02T01:29:32.939Z,40.54
2019-05-02T01:34:43.566Z,40.72
2019-05-02T01:39:47.685Z,40.72
2019-05-02T01:44:51.457Z,40.78
2019-05-02T01:49:57.346Z,40.84
2019-05-02T01:55:00.862Z,40.57
2019-05-02T02:00:09.468Z,40.81
2019-05-02T02:05:11.108Z,40.74
2019-05-02T02:10:19.515Z,40.63
2019-05-02T02:15:20.408Z,40.63
2019-05-02T02:20:25.994Z,40.40
2019-05-02T02:25:51.232Z,40.55
2019-05-02T02:30:57.827Z,40.55
2019-05-02T02:36:00.560Z,40.78
2019-05-02T02:41:06.582Z,40.96
2019-05-02T02:46:19.158Z,40.96
2019-05-02T02:51:25.751Z,40.83
2019-05-02T02:56:28.521Z,40.72
2019-05-02T03:01:32.310Z,41.01
2019-05-02T03:06:38.323Z,40.77
2019-05-02T03:11:49.014Z,40.68
2019-05-02T03:16:52.787Z,41.00
2019-05-02T03:22:01.194Z,40.66
2019-05-02T03:27:02.183Z,40.97
2019-05-02T03:32:21.971Z,40.99
2019-05-02T03:37:13.880Z,40.73
2019-05-02T03:42:17.059Z,41.06
2019-05-02T03:47:20.833Z,41.06
2019-05-02T03:52:24.610Z,41.17
2019-05-02T03:57:33.825Z,41.34
2019-05-02T04:02:33.938Z,41.31
2019-05-02T04:07:40.448Z,41.17
2019-05-02T04:12:43.270Z,41.24
2019-05-02T04:17:47.043Z,41.24
2019-05-02T04:22:50.964Z,41.41
2019-05-02T04:27:54.797Z,41.22
2019-05-02T04:32:58.581Z,41.43
2019-05-02T04:38:07.986Z,41.54
2019-05-02T04:43:11.242Z,42.14
2019-05-02T04:48:13.437Z,41.69
2019-05-02T04:53:18.909Z,41.69
2019-05-02T04:58:27.851Z,42.34
2019-05-02T05:03:28.576Z,42.14
2019-05-02T05:08:32.386Z,42.14
2019-05-02T05:13:37.443Z,42.18
2019-05-02T05:18:43.972Z,42.19
2019-05-02T05:24:08.622Z,42.14
2019-05-02T05:29:13.900Z,42.11
2019-05-02T05:34:22.676Z,42.03
2019-05-02T05:39:23.531Z,42.18
2019-05-02T05:44:30.610Z,42.18
2019-05-02T05:49:32.962Z,42.29
2019-05-02T05:54:40.420Z,42.20
2019-05-02T05:59:42.290Z,42.08
2019-05-02T06:04:47.732Z,42.39
2019-05-02T06:09:51.678Z,41.89
2019-05-02T06:14:56.209Z,42.14
2019-05-02T06:20:01.001Z,42.24
2019-05-02T06:25:09.211Z,42.24
2019-05-02T06:30:12.182Z,42.46
2019-05-02T06:35:17.146Z,42.32
2019-05-02T06:40:21.575Z,42.32
2019-05-02T06:45:25.402Z,42.62
2019-05-02T06:50:33.277Z,42.62
2019-05-02T06:55:36.345Z,42.57
2019-05-02T07:00:56.641Z,39.91
2019-05-02T07:05:48.888Z,39.91
2019-05-02T07:10:51.515Z,43.03
2019-05-02T07:16:10.651Z,43.03
2019-05-02T07:21:17.346Z,42.63
2019-05-02T07:26:21.288Z,40.87
2019-05-02T07:31:25.520Z,40.58
2019-05-02T07:36:31.071Z,40.58
2019-05-02T07:41:37.212Z,40.90
2019-05-02T07:46:51.121Z,41.28
2019-05-02T07:51:45.953Z,41.28
2019-05-02T07:56:53.427Z,41.28
2019-05-02T08:01:55.532Z,41.17
2019-05-02T08:06:59.339Z,41.17
2019-05-02T08:12:03.233Z,40.92
2019-05-02T08:17:16.024Z,39.41
2019-05-02T08:22:14.754Z,39.41
2019-05-02T08:27:40.371Z,42.58
2019-05-02T08:32:44.177Z,39.84
2019-05-02T08:37:47.994Z,40.07
2019-05-02T08:42:51.809Z,40.16
2019-05-02T08:47:55.883Z,40.41
2019-05-02T08:52:59.748Z,40.41
2019-05-02T08:58:06.578Z,40.75
2019-05-02T09:03:09.247Z,40.75
2019-05-02T09:08:14.215Z,40.32
2019-05-02T09:13:25.986Z,40.61
2019-05-02T09:18:30.193Z,41.10
2019-05-02T09:23:33.127Z,41.10
2019-05-02T09:28:35.591Z,41.18
2019-05-02T09:33:45.206Z,41.16
2019-05-02T09:38:48.689Z,41.16
2019-05-02T09:43:52.399Z,41.12
2019-05-02T09:49:02.870Z,41.21
2019-05-02T09:54:06.351Z,40.59
2019-05-02T09:59:24.409Z,40.94
2019-05-02T10:04:15.152Z,40.94
2019-05-02T10:09:24.265Z,40.85
2019-05-02T10:14:24.667Z,40.09
2019-05-02T10:19:28.558Z,40.14
2019-05-02T10:24:32.406Z,40.14
2019-05-02T10:29:36.301Z,40.42
2019-05-02T10:34:42.128Z,39.12
2019-05-02T10:39:45.742Z,39.71
2019-05-02T10:44:49.591Z,39.40
2019-05-02T10:50:02.318Z,39.40
2019-05-02T10:55:06.480Z,39.12
2019-05-02T11:00:12.161Z,38.79
2019-05-02T11:05:22.521Z,38.66
2019-05-02T11:10:24.809Z,39.36
2019-05-02T11:15:45.909Z,38.71
2019-05-02T11:20:49.704Z,39.20
2019-05-02T11:25:53.725Z,39.75
2019-05-02T11:31:02.641Z,39.75
2019-05-02T11:36:03.415Z,38.59
2019-05-02T11:41:07.197Z,39.13
2019-05-02T11:46:12.172Z,39.34
2019-05-02T11:51:16.512Z,38.24
2019-05-02T11:56:22.232Z,37.58
2019-05-02T12:01:35.717Z,37.62
2019-05-02T12:06:33.197Z,37.62
2019-05-02T12:11:37.146Z,37.08
2019-05-02T12:16:43.013Z,38.09
2019-05-02T12:21:54.195Z,37.91
2019-05-02T12:26:58.123Z,37.91
2019-05-02T12:32:02.588Z,36.89
2019-05-02T12:37:06.704Z,36.89
2019-05-02T12:42:13.194Z,37.32
2019-05-02T12:47:17.410Z,37.32
2019-05-02T12:52:22.548Z,36.94
2019-05-02T12:57:26.497Z,36.76
2019-05-02T13:02:45.246Z,37.41
2019-05-02T13:07:54.252Z,37.43
2019-05-02T13:12:54.712Z,37.43
2019-05-02T13:17:58.503Z,37.86
2019-05-02T13:23:35.415Z,38.77
2019-05-02T13:28:33.633Z,38.69
2019-05-02T13:33:53.309Z,38.92
2019-05-02T13:38:57.192Z,38.92
2019-05-02T13:44:02.178Z,39.00
2019-05-02T13:49:06.025Z,39.11
2019-05-02T13:54:09.814Z,39.48
2019-05-02T13:59:13.638Z,39.48
2019-05-02T14:04:17.587Z,39.60
2019-05-02T14:09:27.142Z,39.21
2019-05-02T14:14:32.606Z,39.71
2019-05-02T14:19:36.554Z,39.20
2019-05-02T14:24:42.132Z,39.39
2019-05-02T14:29:46.125Z,39.66
2019-05-02T14:35:05.226Z,39.81
2019-05-02T14:40:15.268Z,40.21
2019-05-02T14:45:30.073Z,40.21
2019-05-02T14:50:26.591Z,40.00
2019-05-02T14:55:32.457Z,40.51
2019-05-02T15:00:45.806Z,40.08
2019-05-02T15:05:45.914Z,40.13
2019-05-02T15:10:54.395Z,40.55
2019-05-02T15:15:55.264Z,40.32
2019-05-02T15:20:59.060Z,40.92
2019-05-02T15:26:02.864Z,40.92
2019-05-02T15:31:11.808Z,40.95
2019-05-02T15:36:15.858Z,40.95
2019-05-02T15:41:19.660Z,40.85
2019-05-02T15:46:28.136Z,40.72
2019-05-02T15:51:29.114Z,40.62
2019-05-02T15:56:35.586Z,40.85
2019-05-02T16:01:47.801Z,40.34
2019-05-02T16:06:52.893Z,40.34
2019-05-02T16:11:57.115Z,40.81
2019-05-02T16:17:03.172Z,40.68
2019-05-02T16:22:24.905Z,42.28
2019-05-02T16:27:47.620Z,42.32
2019-05-02T16:32:59.153Z,40.93
2019-05-02T16:38:02.958Z,40.57
2019-05-02T16:43:06.788Z,40.57
2019-05-02T16:48:12.039Z,40.60
2019-05-02T16:53:17.243Z,39.47
2019-05-02T16:58:21.527Z,39.47
2019-05-02T17:03:26.604Z,39.00
2019-05-02T17:08:57.514Z,37.65
2019-05-02T17:13:58.234Z,37.65
2019-05-02T17:19:02.040Z,36.20
2019-05-02T17:24:05.884Z,35.91
2019-05-02T17:29:11.838Z,36.36
2019-05-02T17:34:15.367Z,36.40
2019-05-02T17:39:19.151Z,36.40
2019-05-02T17:44:24.672Z,36.25
2019-05-02T17:49:34.911Z,36.23
2019-05-02T17:54:34.303Z,36.23
2019-05-02T17:59:38.071Z,36.01
2019-05-02T18:04:42.068Z,35.91
2019-05-02T18:09:46.166Z,35.91
2019-05-02T18:14:51.411Z,35.95
2019-05-02T18:19:56.717Z,36.19
2019-05-02T18:25:02.290Z,36.19
2019-05-02T18:30:07.236Z,35.99
2019-05-02T18:35:11.752Z,36.29
2019-05-02T18:40:15.722Z,36.29
2019-05-02T18:45:25.491Z,37.43
2019-05-02T18:50:36.727Z,37.43
2019-05-02T18:55:38.073Z,37.35
2019-05-02T19:00:42.137Z,37.83
2019-05-02T19:05:46.753Z,37.83
2019-05-02T19:11:04.717Z,37.67
2019-05-02T19:15:58.254Z,38.04
2019-05-02T19:21:03.017Z,37.99
2019-05-02T19:26:14.606Z,37.99
2019-05-02T19:31:13.186Z,38.42
2019-05-02T19:36:24.187Z,38.00
2019-05-02T19:41:22.505Z,38.40
2019-05-02T19:46:34.755Z,38.36
2019-05-02T19:51:31.917Z,37.97
2019-05-02T19:56:45.339Z,38.72
2019-05-02T20:01:41.261Z,38.25
2019-05-02T20:06:45.108Z,38.25
2019-05-02T20:11:48.976Z,38.76
2019-05-02T20:16:53.373Z,38.76
2019-05-02T20:22:11.857Z,38.96
2019-05-02T20:27:15.745Z,39.04
2019-05-02T20:32:19.577Z,38.92
2019-05-02T20:37:23.522Z,38.92
2019-05-02T20:42:27.439Z,38.75
2019-05-02T20:47:31.290Z,38.53
2019-05-02T20:52:35.166Z,39.38
2019-05-02T20:57:38.953Z,38.81
2019-05-02T21:02:42.776Z,38.81
2019-05-02T21:08:05.666Z,39.57
2019-05-02T21:13:09.474Z,39.37
2019-05-02T21:18:13.264Z,39.37
2019-05-02T21:23:17.160Z,39.53
2019-05-02T21:28:22.694Z,39.25
2019-05-02T21:33:39.412Z,39.70
2019-05-02T21:38:43.219Z,39.70
2019-05-02T21:43:47.018Z,39.66
2019-05-02T21:48:52.738Z,39.70
2019-05-02T21:54:08.316Z,39.52
2019-05-02T21:59:12.516Z,39.52
2019-05-02T22:04:16.346Z,39.65
2019-05-02T22:09:20.144Z,40.18
2019-05-02T22:14:24.057Z,40.07
2019-05-02T22:19:27.850Z,40.31
2019-05-02T22:24:31.658Z,40.46
2019-05-02T22:29:35.447Z,40.46
2019-05-02T22:34:39.264Z,40.39
2019-05-02T22:39:50.999Z,40.26
2019-05-02T22:44:54.789Z,40.13
2019-05-02T22:49:58.631Z,39.86
2019-05-02T22:55:03.003Z,40.33
2019-05-02T23:00:07.132Z,40.25
2019-05-02T23:05:12.390Z,40.25
2019-05-02T23:10:16.232Z,40.16
2019-05-02T23:15:21.659Z,40.64
2019-05-02T23:20:25.507Z,40.64
2019-05-02T23:25:46.970Z,40.67
2019-05-02T23:30:51.908Z,40.07
2019-05-02T23:35:55.794Z,40.35
2019-05-02T23:40:59.660Z,40.79
2019-05-02T23:46:03.441Z,40.42
2019-05-02T23:51:07.211Z,40.84
2019-05-02T23:56:13.028Z,40.25
